Time;durP1;ratioP1;P1;durP2;ratioP2;P2;SDS_P1;SDS_P2;PMS_P1;PMS_P2;Temp;Humidity;BMP_temperature;BMP_pressure;BME280_temperature;BME280_humidity;BME280_pressure;Samples;Min_cycle;Max_cycle;Signal;HPM_P1;HPM_P2
2022/02/17 00:00:12;;;;;;;;;153.75;145.00;11.70;64.30;;;;;;4900906;29;8789;-66
2022/02/17 00:02:42;;;;;;;;;141.75;131.00;11.50;63.90;;;;;;4900737;29;8801;-69
2022/02/17 00:05:10;;;;;;;;;121.50;112.75;11.80;63.50;;;;;;4900824;29;8765;-66
2022/02/17 00:07:36;;;;;;;;;111.25;107.50;11.70;63.70;;;;;;4901017;29;8781;-67
2022/02/17 00:10:04;;;;;;;;;103.00;93.25;11.60;63.80;;;;;;4900712;29;8785;-67
2022/02/17 00:12:30;;;;;;;;;105.50;98.00;11.60;63.60;;;;;;4901032;29;8817;-70
2022/02/17 00:14:57;;;;;;;;;107.25;99.25;11.80;63.00;;;;;;4900698;29;8785;-69
2022/02/17 00:17:23;;;;;;;;;105.25;96.50;11.80;62.50;;;;;;4900586;29;8802;-69
2022/02/17 00:19:49;;;;;;;;;107.25;98.50;11.90;62.10;;;;;;4900602;29;8793;-67
2022/02/17 00:22:16;;;;;;;;;95.75;85.25;12.10;61.50;;;;;;4899903;29;8809;-66
2022/02/17 00:24:42;;;;;;;;;100.50;93.25;12.10;61.40;;;;;;4900549;29;8855;-67
2022/02/17 00:27:08;;;;;;;;;97.50;88.50;12.00;61.70;;;;;;4900411;29;8816;-67
2022/02/17 00:29:34;;;;;;;;;93.25;86.25;11.90;61.80;;;;;;4899919;29;8829;-65
2022/02/17 00:32:00;;;;;;;;;93.50;80.75;11.90;61.30;;;;;;4900160;29;8870;-67
2022/02/17 00:34:26;;;;;;;;;101.50;88.50;12.00;60.90;;;;;;4900462;29;8813;-67
2022/02/17 00:36:51;;;;;;;;;98.50;86.00;12.00;61.00;;;;;;4900199;29;8798;-64
2022/02/17 00:39:18;;;;;;;;;113.50;107.00;12.10;60.80;;;;;;4900165;29;8800;-68
2022/02/17 00:41:43;;;;;;;;;119.75;106.50;11.80;61.70;;;;;;4900386;29;8843;-67
2022/02/17 00:44:09;;;;;;;;;117.25;111.25;11.60;62.40;;;;;;4899435;29;8817;-67
2022/02/17 00:46:35;;;;;;;;;114.00;106.00;11.70;62.10;;;;;;4900088;29;8778;-66
2022/02/17 00:49:01;;;;;;;;;119.75;105.50;11.80;61.30;;;;;;4900187;29;8789;-67
2022/02/17 00:51:27;;;;;;;;;115.00;104.50;11.90;60.90;;;;;;4899953;29;9428;-67
2022/02/17 00:53:53;;;;;;;;;118.50;109.75;12.00;60.20;;;;;;4900108;29;8781;-66
2022/02/17 00:56:18;;;;;;;;;133.25;124.75;12.10;60.50;;;;;;4899863;29;8908;-67
2022/02/17 00:58:44;;;;;;;;;119.00;111.00;12.10;60.70;;;;;;4899820;29;8821;-66
2022/02/17 01:01:10;;;;;;;;;133.75;118.50;12.00;60.50;;;;;;4900030;29;8808;-66
2022/02/17 01:03:36;;;;;;;;;142.50;131.50;11.70;61.80;;;;;;4899691;29;8821;-67
2022/02/17 01:06:02;;;;;;;;;142.25;138.25;11.40;63.00;;;;;;4899731;29;8761;-66
2022/02/17 01:08:28;;;;;;;;;158.25;141.25;11.10;64.80;;;;;;4899698;29;8786;-67
2022/02/17 01:10:55;;;;;;;;;165.50;147.50;11.20;64.30;;;;;;4899799;29;8858;-66
2022/02/17 01:13:23;;;;;;;;;160.75;144.50;11.20;64.10;;;;;;4899881;29;9468;-66
2022/02/17 01:15:50;;;;;;;;;184.25;168.50;10.90;64.40;;;;;;4899557;29;8797;-67
2022/02/17 01:18:15;;;;;;;;;218.00;196.25;10.90;64.90;;;;;;4899829;29;8784;-66
2022/02/17 01:20:41;;;;;;;;;242.00;213.75;10.70;65.20;;;;;;4899496;29;8798;-66
2022/02/17 01:23:08;;;;;;;;;232.00;213.75;10.90;64.80;;;;;;4899686;29;8817;-66
2022/02/17 01:25:34;;;;;;;;;198.00;180.75;11.00;63.30;;;;;;4899588;29;8812;-67
2022/02/17 01:28:00;;;;;;;;;175.25;157.75;11.00;63.20;;;;;;4899417;29;8831;-66
2022/02/17 01:30:26;;;;;;;;;191.75;175.25;11.00;63.60;;;;;;4899305;29;8789;-66
2022/02/17 01:32:52;;;;;;;;;161.50;145.50;11.00;63.50;;;;;;4899150;29;8908;-65
2022/02/17 01:35:18;;;;;;;;;196.00;173.25;10.90;63.70;;;;;;4898327;29;8801;-66
2022/02/17 01:37:45;;;;;;;;;170.50;158.75;10.80;63.50;;;;;;4899536;29;8785;-66
2022/02/17 01:40:11;;;;;;;;;162.75;154.25;10.50;65.20;;;;;;4899302;29;8789;-67
2022/02/17 01:42:37;;;;;;;;;167.00;149.50;10.00;66.30;;;;;;4899457;29;8845;-66
2022/02/17 01:45:05;;;;;;;;;149.00;131.25;9.90;67.70;;;;;;4899288;29;8773;-67
2022/02/17 01:47:31;;;;;;;;;166.75;147.25;10.00;68.40;;;;;;4899418;29;8880;-66
2022/02/17 01:49:56;;;;;;;;;159.00;140.75;9.20;71.70;;;;;;4899194;29;8905;-67
2022/02/17 01:52:23;;;;;;;;;145.00;133.75;9.20;72.20;;;;;;4899146;29;8797;-66
2022/02/17 01:54:49;;;;;;;;;115.25;104.50;8.80;76.30;;;;;;4899919;29;8882;-66
2022/02/17 01:57:18;;;;;;;;;106.00;101.25;9.00;73.30;;;;;;4903088;29;8805;-67
2022/02/17 01:59:45;;;;;;;;;98.75;90.75;9.20;72.10;;;;;;4903092;29;8898;-66
2022/02/17 02:02:11;;;;;;;;;83.75;66.50;9.10;72.90;;;;;;4903162;29;8770;-66
2022/02/17 02:04:38;;;;;;;;;100.00;88.75;9.10;72.70;;;;;;4903182;29;9439;-65
2022/02/17 02:07:08;;;;;;;;;109.50;102.50;9.20;72.10;;;;;;4902930;29;8789;-68
2022/02/17 02:09:35;;;;;;;;;97.50;90.75;9.70;69.10;;;;;;4902933;29;8781;-64
2022/02/17 02:12:01;;;;;;;;;105.75;95.25;9.70;67.40;;;;;;4903061;29;8844;-69
2022/02/17 02:14:27;;;;;;;;;99.50;88.75;10.00;66.60;;;;;;4902868;29;8777;-65
2022/02/17 02:16:53;;;;;;;;;99.50;90.00;10.20;65.40;;;;;;4902779;29;8800;-67
2022/02/17 02:19:20;;;;;;;;;96.00;84.00;9.90;65.90;;;;;;4902709;29;8790;-66
2022/02/17 02:21:46;;;;;;;;;93.00;82.25;9.80;68.00;;;;;;4902586;29;8808;-66
2022/02/17 02:24:12;;;;;;;;;93.25;75.00;10.00;66.10;;;;;;4902517;29;8829;-66
2022/02/17 02:26:37;;;;;;;;;90.75;73.75;9.60;67.00;;;;;;4902850;29;8789;-66
2022/02/17 02:29:03;;;;;;;;;78.25;61.00;9.60;68.30;;;;;;4902505;29;8781;-65
2022/02/17 02:31:29;;;;;;;;;80.25;65.00;9.60;67.30;;;;;;4902509;29;8832;-65
2022/02/17 02:33:55;;;;;;;;;76.75;61.00;9.70;67.20;;;;;;4900969;29;8826;-65
2022/02/17 02:36:21;;;;;;;;;71.00;57.25;9.40;68.30;;;;;;4902314;29;8781;-64
2022/02/17 02:38:47;;;;;;;;;67.25;54.00;9.60;67.80;;;;;;4902410;29;8789;-64
2022/02/17 02:41:13;;;;;;;;;68.00;51.00;9.50;68.20;;;;;;4902639;29;9488;-65
2022/02/17 02:43:40;;;;;;;;;80.00;63.50;9.70;67.80;;;;;;4902590;29;8848;-65
2022/02/17 02:46:07;;;;;;;;;70.50;57.50;9.50;67.70;;;;;;4902504;29;9444;-66
2022/02/17 02:48:33;;;;;;;;;88.25;68.00;9.40;68.60;;;;;;4902234;29;8864;-65
2022/02/17 02:50:59;;;;;;;;;106.00;96.50;9.60;67.70;;;;;;4902405;29;8781;-65
2022/02/17 02:53:24;;;;;;;;;91.75;83.25;9.40;68.20;;;;;;4902337;29;8813;-66
2022/02/17 02:55:51;;;;;;;;;126.75;115.75;9.10;68.40;;;;;;4902104;29;8956;-67
2022/02/17 02:58:18;;;;;;;;;140.75;129.50;9.00;69.00;;;;;;4902063;29;8836;-66
2022/02/17 03:00:46;;;;;;;;;120.25;112.25;8.70;68.90;;;;;;4901998;29;8792;-66
2022/02/17 03:03:13;;;;;;;;;135.75;126.50;8.80;68.20;;;;;;4901880;29;8847;-66
2022/02/17 03:05:40;;;;;;;;;126.25;115.50;8.60;69.30;;;;;;4902139;29;8774;-66
2022/02/17 03:08:06;;;;;;;;;130.50;117.75;9.10;67.50;;;;;;4901243;29;8785;-66
2022/02/17 03:10:32;;;;;;;;;113.75;102.25;9.70;64.90;;;;;;4901916;29;8812;-66
2022/02/17 03:12:59;;;;;;;;;108.75;99.00;9.80;63.00;;;;;;4902019;29;8773;-67
2022/02/17 03:15:26;;;;;;;;;101.50;87.00;9.90;62.70;;;;;;4901908;29;8785;-65
2022/02/17 03:17:52;;;;;;;;;96.00;77.25;9.90;62.10;;;;;;4901675;29;8798;-65
2022/02/17 03:20:19;;;;;;;;;99.75;85.50;10.00;61.50;;;;;;4901915;29;8790;-65
2022/02/17 03:22:44;;;;;;;;;97.50;85.25;10.10;61.40;;;;;;4901570;29;8825;-67
2022/02/17 03:25:13;;;;;;;;;96.75;86.75;10.40;60.20;;;;;;4901592;29;8789;-66
2022/02/17 03:27:39;;;;;;;;;93.50;74.00;10.40;59.50;;;;;;4901537;29;8868;-65
2022/02/17 03:30:07;;;;;;;;;87.25;65.50;10.00;60.60;;;;;;4901741;29;8794;-65
2022/02/17 03:32:37;;;;;;;;;84.25;66.75;10.00;61.10;;;;;;4901269;29;8928;-65
2022/02/17 03:35:05;;;;;;;;;91.75;73.25;10.00;61.20;;;;;;4901426;29;8785;-66
2022/02/17 03:37:30;;;;;;;;;91.50;72.50;10.30;60.20;;;;;;4901487;29;8848;-67
2022/02/17 03:39:56;;;;;;;;;92.75;76.00;10.50;59.40;;;;;;4901354;29;8885;-65
2022/02/17 03:42:22;;;;;;;;;90.50;72.25;10.60;59.00;;;;;;4901229;29;8845;-64
2022/02/17 03:44:48;;;;;;;;;94.50;79.25;10.40;59.20;;;;;;4901217;29;8792;-65
2022/02/17 03:47:14;;;;;;;;;97.75;84.50;10.30;59.90;;;;;;4901127;29;8817;-65
2022/02/17 03:49:40;;;;;;;;;89.25;74.75;10.30;59.60;;;;;;4901107;29;8869;-66
2022/02/17 03:52:06;;;;;;;;;95.50;78.50;10.40;59.30;;;;;;4901102;29;8793;-67
2022/02/17 03:54:33;;;;;;;;;94.25;77.00;10.60;58.60;;;;;;4901088;29;8789;-66
2022/02/17 03:56:59;;;;;;;;;92.00;74.50;10.60;58.60;;;;;;4901036;29;8793;-66
2022/02/17 03:59:25;;;;;;;;;95.25;83.00;10.50;58.70;;;;;;4900965;29;9442;-68
2022/02/17 04:01:51;;;;;;;;;90.00;70.75;10.20;59.30;;;;;;4900898;29;8809;-67
2022/02/17 04:04:17;;;;;;;;;84.75;67.00;10.20;59.70;;;;;;4900782;29;8845;-67
2022/02/17 04:06:43;;;;;;;;;82.25;64.75;10.40;60.00;;;;;;4900866;29;8794;-65
2022/02/17 04:09:09;;;;;;;;;81.75;65.00;10.40;58.40;;;;;;4900616;29;8877;-67
2022/02/17 04:11:35;;;;;;;;;68.50;54.75;10.50;58.50;;;;;;4900995;29;8866;-67
2022/02/17 04:14:01;;;;;;;;;72.50;58.25;10.40;58.60;;;;;;4900983;29;8785;-67
2022/02/17 04:16:29;;;;;;;;;67.75;55.50;10.50;58.60;;;;;;4900750;29;8922;-68
2022/02/17 04:18:56;;;;;;;;;72.25;58.00;10.40;59.10;;;;;;4899678;29;8908;-67
2022/02/17 04:21:22;;;;;;;;;70.00;56.00;10.50;58.90;;;;;;4900603;29;8943;-67
2022/02/17 04:23:48;;;;;;;;;73.50;57.00;10.50;58.70;;;;;;4900511;29;8821;-68
2022/02/17 04:26:16;;;;;;;;;68.50;53.25;10.20;59.70;;;;;;4900433;29;8824;-67
2022/02/17 04:28:44;;;;;;;;;69.50;54.25;10.30;59.70;;;;;;4900439;29;9506;-67
2022/02/17 04:31:11;;;;;;;;;65.50;55.00;10.40;59.50;;;;;;4900637;29;8805;-67
2022/02/17 04:33:38;;;;;;;;;70.75;55.50;10.50;58.80;;;;;;4900251;29;8836;-67
2022/02/17 04:36:05;;;;;;;;;71.75;57.75;10.40;59.10;;;;;;4900276;29;8789;-67
2022/02/17 04:38:31;;;;;;;;;70.00;58.50;10.50;58.70;;;;;;4900221;29;8812;-67
2022/02/17 04:43:42;;;;;;;;;74.25;58.25;10.30;59.30;;;;;;4900224;29;8817;-65
2022/02/17 04:46:08;;;;;;;;;73.50;57.50;10.20;59.30;;;;;;4900102;29;8793;-66
2022/02/17 04:48:34;;;;;;;;;70.25;55.50;10.50;58.80;;;;;;4900324;29;8888;-66
2022/02/17 04:51:00;;;;;;;;;78.75;61.25;10.60;58.30;;;;;;4900303;29;9444;-66
2022/02/17 04:53:26;;;;;;;;;63.25;49.50;10.60;57.90;;;;;;4900317;29;8797;-66
2022/02/17 04:55:52;;;;;;;;;69.75;56.25;10.40;58.50;;;;;;4900217;29;8797;-66
2022/02/17 04:58:18;;;;;;;;;73.25;58.00;10.30;59.00;;;;;;4900241;29;8907;-66
2022/02/17 05:00:45;;;;;;;;;71.25;55.50;10.20;59.60;;;;;;4899847;29;8797;-65
2022/02/17 05:03:11;;;;;;;;;64.00;53.00;10.30;59.50;;;;;;4900053;29;8813;-65
2022/02/17 05:05:37;;;;;;;;;73.00;57.00;10.40;59.50;;;;;;4899786;29;8888;-65
2022/02/17 05:08:04;;;;;;;;;76.00;60.00;10.50;59.50;;;;;;4899841;29;8785;-65
2022/02/17 05:10:30;;;;;;;;;74.00;58.00;10.40;58.30;;;;;;4899817;29;8812;-65
2022/02/17 05:12:56;;;;;;;;;75.25;61.00;10.40;58.60;;;;;;4899663;29;8797;-64
2022/02/17 05:15:22;;;;;;;;;82.25;65.00;10.40;58.30;;;;;;4899897;29;8785;-65
2022/02/17 05:17:48;;;;;;;;;77.25;61.75;10.20;59.30;;;;;;4899713;29;8881;-65
2022/02/17 05:20:14;;;;;;;;;83.00;66.00;10.10;59.60;;;;;;4899528;29;8808;-65
2022/02/17 05:22:42;;;;;;;;;82.75;65.50;9.80;60.90;;;;;;4899955;29;8906;-66
2022/02/17 05:25:12;;;;;;;;;86.00;64.25;9.90;60.50;;;;;;4899491;29;8895;-65
2022/02/17 05:27:39;;;;;;;;;75.00;57.75;10.30;59.70;;;;;;4899503;29;8782;-66
2022/02/17 05:30:06;;;;;;;;;88.50;72.75;10.60;58.20;;;;;;4899463;29;8900;-65
2022/02/17 05:32:32;;;;;;;;;110.75;100.75;10.70;57.90;;;;;;4899164;29;8837;-66
2022/02/17 05:34:58;;;;;;;;;98.25;89.75;10.60;58.00;;;;;;4899394;29;8785;-65
2022/02/17 05:37:24;;;;;;;;;92.25;84.25;10.70;58.00;;;;;;4899400;29;8835;-65
2022/02/17 05:39:50;;;;;;;;;95.00;89.75;10.80;57.90;;;;;;4899590;29;8796;-65
2022/02/17 05:42:15;;;;;;;;;99.50;86.25;10.90;57.60;;;;;;4899453;29;8844;-66
2022/02/17 05:44:41;;;;;;;;;100.00;86.00;10.90;57.50;;;;;;4899277;29;8880;-65
2022/02/17 05:47:08;;;;;;;;;99.75;90.00;10.90;57.50;;;;;;4899166;29;8797;-65
2022/02/17 05:49:34;;;;;;;;;97.50;89.50;10.80;57.80;;;;;;4899415;29;8788;-65
2022/02/17 05:52:00;;;;;;;;;97.25;86.25;10.50;59.10;;;;;;4899192;29;8831;-65
2022/02/17 05:54:26;;;;;;;;;93.00;78.50;10.80;58.00;;;;;;4899213;29;8849;-65
2022/02/17 05:56:52;;;;;;;;;90.75;76.25;11.10;57.30;;;;;;4899142;29;8785;-66
2022/02/17 05:59:17;;;;;;;;;88.75;77.00;11.30;56.40;;;;;;4898931;29;8782;-66
2022/02/17 06:01:43;;;;;;;;;97.00;81.75;11.30;56.40;;;;;;4897958;29;8794;-65
2022/02/17 06:04:09;;;;;;;;;95.75;89.75;11.30;55.70;;;;;;4899298;29;9602;-65
2022/02/17 06:06:36;;;;;;;;;95.00;79.50;11.30;56.70;;;;;;4899305;29;9460;-66
2022/02/17 06:09:05;;;;;;;;;105.25;91.25;11.50;56.60;;;;;;4899310;29;8803;-65
2022/02/17 06:11:31;;;;;;;;;126.00;115.75;11.60;56.70;;;;;;4898668;29;8817;-65
2022/02/17 06:13:57;;;;;;;;;118.75;109.50;11.70;56.10;;;;;;4897917;29;8808;-66
2022/02/17 06:16:23;;;;;;;;;133.75;123.75;11.70;56.00;;;;;;4899148;29;8800;-65
2022/02/17 06:18:49;;;;;;;;;137.25;121.50;11.80;55.20;;;;;;4898946;29;9400;-65
2022/02/17 06:21:15;;;;;;;;;135.75;131.00;11.60;55.90;;;;;;4898910;29;8805;-66
2022/02/17 06:23:41;;;;;;;;;149.50;141.25;11.70;55.90;;;;;;4898830;29;8833;-65
2022/02/17 06:26:07;;;;;;;;;146.75;131.75;11.70;55.40;;;;;;4898369;29;8876;-66
2022/02/17 06:28:33;;;;;;;;;138.75;126.75;11.70;55.60;;;;;;4898719;29;8793;-65
2022/02/17 06:30:59;;;;;;;;;162.25;154.25;11.60;55.90;;;;;;4898654;29;8793;-65
2022/02/17 06:33:24;;;;;;;;;170.00;150.50;11.70;56.10;;;;;;4898528;29;8857;-65
2022/02/17 06:35:50;;;;;;;;;132.25;124.75;11.70;56.30;;;;;;4898956;29;8798;-65
2022/02/17 06:38:16;;;;;;;;;132.75;126.25;11.90;56.10;;;;;;4898831;29;9436;-65
2022/02/17 06:40:42;;;;;;;;;125.50;115.50;11.90;56.10;;;;;;4898797;29;8913;-65
2022/02/17 06:43:13;;;;;;;;;125.50;121.25;12.00;56.10;;;;;;4901436;29;8944;-66
2022/02/17 06:45:40;;;;;;;;;129.25;114.25;11.90;56.70;;;;;;4902340;29;8777;-65
2022/02/17 06:48:07;;;;;;;;;112.50;98.25;11.90;56.90;;;;;;4902206;29;8884;-66
2022/02/17 06:50:34;;;;;;;;;123.00;114.50;12.00;56.10;;;;;;4902206;29;8785;-66
2022/02/17 06:53:00;;;;;;;;;126.50;112.50;12.00;55.80;;;;;;4902201;29;8782;-65
2022/02/17 06:55:26;;;;;;;;;98.75;93.00;12.10;56.10;;;;;;4902078;29;8793;-65
2022/02/17 06:57:53;;;;;;;;;113.75;103.00;12.00;56.00;;;;;;4902049;29;8793;-65
2022/02/17 07:00:20;;;;;;;;;129.50;118.25;12.20;56.20;;;;;;4902242;29;8794;-67
2022/02/17 07:02:54;;;;;;;;;224.25;202.25;12.00;57.10;;;;;;4902043;29;8856;-65
2022/02/17 07:05:21;;;;;;;;;249.50;236.00;11.90;57.20;;;;;;4901778;29;8829;-74
2022/02/17 07:07:48;;;;;;;;;241.50;215.50;11.90;57.40;;;;;;4902096;29;8802;-66
2022/02/17 07:10:14;;;;;;;;;212.25;193.00;12.00;56.80;;;;;;4901869;29;8802;-66
2022/02/17 07:12:43;;;;;;;;;146.75;136.00;12.10;56.20;;;;;;4902088;29;8810;-70
2022/02/17 07:15:12;;;;;;;;;122.25;113.50;12.00;55.50;;;;;;4901762;29;8773;-69
2022/02/17 07:17:39;;;;;;;;;147.00;135.00;11.80;55.50;;;;;;4901653;29;8782;-69
2022/02/17 07:20:05;;;;;;;;;122.00;110.50;11.70;55.50;;;;;;4901748;29;8816;-69
2022/02/17 07:22:31;;;;;;;;;140.25;122.25;11.60;55.20;;;;;;4901823;29;8932;-69
2022/02/17 07:24:57;;;;;;;;;137.50;123.25;11.70;55.30;;;;;;4901562;29;8966;-69
2022/02/17 07:27:23;;;;;;;;;122.25;110.50;11.80;54.60;;;;;;4901817;29;8793;-69
2022/02/17 07:29:49;;;;;;;;;112.50;108.50;11.60;54.60;;;;;;4901773;29;8788;-69
2022/02/17 07:32:15;;;;;;;;;97.50;79.25;11.60;55.40;;;;;;4901222;29;8813;-68
2022/02/17 07:34:41;;;;;;;;;89.50;72.25;11.60;55.90;;;;;;4901332;29;8897;-68
2022/02/17 07:37:07;;;;;;;;;97.00;82.00;11.80;55.10;;;;;;4901340;29;8812;-68
2022/02/17 07:39:34;;;;;;;;;95.00;85.75;11.90;54.60;;;;;;4901398;29;8801;-67
2022/02/17 07:42:00;;;;;;;;;96.00;87.75;11.70;55.30;;;;;;4901595;29;8813;-69
2022/02/17 07:44:26;;;;;;;;;93.50;82.50;11.80;55.20;;;;;;4901407;29;8808;-66
2022/02/17 07:46:57;;;;;;;;;84.50;66.25;11.90;55.30;;;;;;4901220;29;8789;-66
2022/02/17 07:49:22;;;;;;;;;101.50;88.00;11.80;55.50;;;;;;4901098;29;8897;-66
2022/02/17 07:51:48;;;;;;;;;105.00;99.50;11.90;55.20;;;;;;4901185;29;8876;-64
2022/02/17 07:54:14;;;;;;;;;94.50;87.75;11.90;55.70;;;;;;4900879;29;8847;-63
2022/02/17 07:56:40;;;;;;;;;91.50;79.50;12.00;55.40;;;;;;4901264;29;8910;-63
2022/02/17 07:59:06;;;;;;;;;95.50;85.75;12.20;54.10;;;;;;4901138;29;8896;-63
2022/02/17 08:01:32;;;;;;;;;92.50;83.75;12.20;53.80;;;;;;4900091;29;8801;-64
2022/02/17 08:03:57;;;;;;;;;97.00;89.75;12.30;53.60;;;;;;4900965;29;8825;-63
2022/02/17 08:06:23;;;;;;;;;122.00;110.25;12.00;55.40;;;;;;4899729;29;8798;-63
2022/02/17 08:08:51;;;;;;;;;143.25;126.25;11.50;57.10;;;;;;4900427;29;8940;-64
2022/02/17 08:11:17;;;;;;;;;162.50;150.50;11.50;57.80;;;;;;4900577;29;8806;-64
2022/02/17 08:13:43;;;;;;;;;149.00;138.50;11.60;58.00;;;;;;4899633;29;8798;-64
2022/02/17 08:16:10;;;;;;;;;189.00;168.25;11.80;57.20;;;;;;4898809;29;8792;-62
2022/02/17 08:18:36;;;;;;;;;218.50;196.50;11.50;58.70;;;;;;4897643;29;9402;-64
2022/02/17 08:21:02;;;;;;;;;209.75;201.25;11.50;59.30;;;;;;4899488;29;8785;-64
2022/02/17 08:23:31;;;;;;;;;196.00;189.25;11.20;60.10;;;;;;4899191;29;8835;-65
2022/02/17 08:26:00;;;;;;;;;237.00;213.00;11.20;60.60;;;;;;4896992;29;8789;-63
2022/02/17 08:28:26;;;;;;;;;228.50;213.50;11.10;61.10;;;;;;4899153;29;8802;-63
2022/02/17 08:30:51;;;;;;;;;252.50;230.75;11.60;59.90;;;;;;4898481;29;8856;-64
2022/02/17 08:33:18;;;;;;;;;239.50;220.50;11.80;58.90;;;;;;4898053;29;8795;-68
2022/02/17 08:35:44;;;;;;;;;238.50;222.25;12.00;58.20;;;;;;4898568;29;8772;-63
2022/02/17 08:38:10;;;;;;;;;227.00;215.00;12.20;57.90;;;;;;4898736;29;8763;-66
2022/02/17 08:40:37;;;;;;;;;228.50;208.00;12.30;57.30;;;;;;4899629;29;8789;-65
2022/02/17 08:43:09;;;;;;;;;239.75;219.75;12.50;56.40;;;;;;4900044;29;8851;-66
2022/02/17 08:45:40;;;;;;;;;240.25;221.25;12.40;56.90;;;;;;4900074;29;8805;-64
2022/02/17 08:48:07;;;;;;;;;238.75;231.50;12.10;57.70;;;;;;4900134;29;8781;-64
2022/02/17 08:50:34;;;;;;;;;247.25;229.25;12.00;58.70;;;;;;4899827;29;8804;-64
2022/02/17 08:52:59;;;;;;;;;242.00;225.75;12.10;59.10;;;;;;4904989;29;8797;-66
2022/02/17 08:55:26;;;;;;;;;246.00;224.75;12.40;58.30;;;;;;4899908;29;8797;-65
2022/02/17 08:57:53;;;;;;;;;244.00;224.50;12.60;57.50;;;;;;4899681;29;8800;-63
2022/02/17 09:00:19;;;;;;;;;238.50;216.00;12.70;57.20;;;;;;4899662;29;8766;-63
2022/02/17 09:02:45;;;;;;;;;245.00;223.00;12.70;56.60;;;;;;4899539;29;8856;-64
2022/02/17 09:05:11;;;;;;;;;280.50;261.25;12.80;56.60;;;;;;4914691;29;8792;-65
2022/02/17 09:07:37;;;;;;;;;305.50;279.50;12.40;58.40;;;;;;4917594;29;8791;-63
2022/02/17 09:10:05;;;;;;;;;300.25;275.00;12.30;58.60;;;;;;4918366;29;8881;-65
2022/02/17 09:12:32;;;;;;;;;320.50;301.50;12.60;58.20;;;;;;4918301;29;8823;-63
2022/02/17 09:14:58;;;;;;;;;304.00;282.50;12.70;57.50;;;;;;4918329;29;8760;-63
2022/02/17 09:17:23;;;;;;;;;272.50;251.25;12.60;58.00;;;;;;4918403;29;8768;-63
2022/02/17 09:19:49;;;;;;;;;272.00;250.50;12.60;58.00;;;;;;4918676;29;8790;-62
2022/02/17 09:22:15;;;;;;;;;264.25;245.00;12.40;58.90;;;;;;4918083;29;8807;-63
2022/02/17 09:24:41;;;;;;;;;262.50;241.50;12.60;59.10;;;;;;4918489;29;8768;-64
2022/02/17 09:27:07;;;;;;;;;264.50;245.75;12.90;58.00;;;;;;4918241;29;8783;-63
2022/02/17 09:29:32;;;;;;;;;291.25;264.75;13.20;56.90;;;;;;4918111;29;8806;-63
2022/02/17 09:31:58;;;;;;;;;280.25;261.75;13.50;56.50;;;;;;4917993;29;8801;-62
2022/02/17 09:34:25;;;;;;;;;284.75;262.00;13.70;55.70;;;;;;4909106;29;8924;-63
2022/02/17 09:36:52;;;;;;;;;279.50;257.00;13.80;55.20;;;;;;4897759;29;8789;-62
2022/02/17 09:39:18;;;;;;;;;306.00;281.75;14.00;55.20;;;;;;4898815;29;8805;-64
2022/02/17 09:41:45;;;;;;;;;314.25;282.75;13.30;57.20;;;;;;4899194;29;8821;-66
2022/02/17 09:44:11;;;;;;;;;303.50;276.75;13.20;58.50;;;;;;4898836;29;8884;-67
2022/02/17 09:46:41;;;;;;;;;286.50;262.00;13.50;58.10;;;;;;4897886;29;8793;-65
2022/02/17 09:49:09;;;;;;;;;293.00;270.00;13.70;58.00;;;;;;4898987;29;9476;-65
2022/02/17 09:51:34;;;;;;;;;305.75;286.25;14.10;56.60;;;;;;4906217;29;8788;-65
2022/02/17 09:54:02;;;;;;;;;308.50;291.25;14.10;57.40;;;;;;4917911;29;8799;-64
2022/02/17 09:56:28;;;;;;;;;312.75;290.50;14.20;57.40;;;;;;4917859;29;8894;-64
2022/02/17 09:58:55;;;;;;;;;304.50;291.25;14.50;55.80;;;;;;4917907;29;8906;-66
2022/02/17 10:01:26;;;;;;;;;269.00;244.50;15.00;54.40;;;;;;4917804;29;8779;-67
2022/02/17 10:04:17;;;;;;;;;247.75;228.25;15.30;54.00;;;;;;4918094;29;8915;-66
2022/02/17 10:06:46;;;;;;;;;182.75;173.00;16.00;52.60;;;;;;4917870;29;8904;-66
2022/02/17 10:09:13;;;;;;;;;190.75;177.50;15.60;51.30;;;;;;4917755;29;8795;-64
2022/02/17 10:11:40;;;;;;;;;188.25;168.00;15.70;52.80;;;;;;4913442;29;8936;-62
2022/02/17 10:14:13;;;;;;;;;179.00;169.00;15.60;53.10;;;;;;4898969;29;8778;-62
2022/02/17 10:16:57;;;;;;;;;149.25;142.75;15.50;53.40;;;;;;4899285;29;8892;-63
2022/02/17 10:19:32;;;;;;;;;143.50;133.50;14.90;55.40;;;;;;4902761;29;8777;-62
2022/02/17 10:22:10;;;;;;;;;138.00;127.75;15.30;54.20;;;;;;4913124;29;8812;-62
2022/02/17 10:24:48;;;;;;;;;129.75;124.25;16.10;51.30;;;;;;4921436;29;8823;-62
2022/02/17 10:27:17;;;;;;;;;103.00;96.00;17.10;48.80;;;;;;4921393;29;8883;-62
2022/02/17 10:30:02;;;;;;;;;104.25;96.50;17.60;46.70;;;;;;4921383;29;8767;-64
2022/02/17 10:32:28;;;;;;;;;84.00;77.75;18.30;45.30;;;;;;4921350;29;8845;-66
2022/02/17 10:35:27;;;;;;;;;78.75;69.50;19.10;42.90;;;;;;4921436;29;8779;-66
2022/02/17 10:37:53;;;;;;;;;58.75;48.75;19.20;42.00;;;;;;4831615;29;8862;-64
2022/02/17 10:40:20;;;;;;;;;42.75;36.75;18.70;41.00;;;;;;4815586;29;8841;-67
2022/02/17 10:43:02;;;;;;;;;34.67;31.00;19.80;38.00;;;;;;4818841;29;8884;-65
2022/02/17 10:45:28;;;;;;;;;24.00;24.00;22.00;33.60;;;;;;4808537;29;8819;-66
2022/02/17 10:48:10;;;;;;;;;28.00;27.33;24.20;30.50;;;;;;4819613;29;8854;-68
2022/02/17 10:50:36;;;;;;;;;20.67;18.67;25.30;28.10;;;;;;4807808;29;8808;-68
2022/02/17 10:53:21;;;;;;;;;21.33;19.67;24.80;27.10;;;;;;4844193;29;11564;-68
2022/02/17 10:55:51;;;;;;;;;16.67;16.67;24.70;27.60;;;;;;4832532;29;8818;-68
2022/02/17 10:58:17;;;;;;;;;20.25;19.75;25.30;27.10;;;;;;4825654;29;12444;-68
2022/02/17 11:00:44;;;;;;;;;22.67;21.33;27.30;25.70;;;;;;4812917;29;11685;-67
2022/02/17 11:03:10;;;;;;;;;22.33;22.33;25.70;26.00;;;;;;4812302;29;11748;-64
2022/02/17 11:05:38;;;;;;;;;11.50;11.50;27.80;25.70;;;;;;4807388;29;11709;-67
2022/02/17 11:08:06;;;;;;;;;21.00;21.00;26.70;24.40;;;;;;4808013;29;8881;-67
2022/02/17 11:10:31;;;;;;;;;14.00;14.00;28.50;23.40;;;;;;4817218;29;11684;-65
2022/02/17 11:12:58;;;;;;;;;13.75;13.75;30.10;22.50;;;;;;4830533;29;11569;-64
2022/02/17 11:15:24;;;;;;;;;14.00;14.00;31.90;21.10;;;;;;4888989;29;8810;-63
2022/02/17 11:17:50;;;;;;;;;13.25;13.25;33.00;20.20;;;;;;4901847;29;11569;-67
2022/02/17 11:20:17;;;;;;;;;19.25;19.25;33.00;19.60;;;;;;4901522;29;11493;-66
2022/02/17 11:22:46;;;;;;;;;10.00;10.00;32.20;19.70;;;;;;4918018;29;8823;-66
2022/02/17 11:25:12;;;;;;;;;10.00;10.00;31.00;19.50;;;;;;4920353;29;11621;-64
2022/02/17 11:28:07;;;;;;;;;16.25;15.25;28.90;22.20;;;;;;4919704;29;12264;-64
2022/02/17 11:30:33;;;;;;;;;12.00;12.00;28.10;21.20;;;;;;4920281;29;8779;-65
2022/02/17 11:33:39;;;;;;;;;9.00;9.00;29.00;21.10;;;;;;4920065;29;11560;-65
2022/02/17 11:36:08;;;;;;;;;13.25;13.25;29.20;20.00;;;;;;4910903;29;11660;-67
2022/02/17 11:38:36;;;;;;;;;12.50;12.50;29.10;20.30;;;;;;4900942;29;11618;-67
2022/02/17 11:41:12;;;;;;;;;12.25;12.25;28.80;20.30;;;;;;4882658;29;11648;-68
2022/02/17 11:43:44;;;;;;;;;13.00;13.00;27.60;20.90;;;;;;4882406;29;11571;-66
2022/02/17 11:46:11;;;;;;;;;13.75;13.75;27.50;22.00;;;;;;4882344;29;11547;-66
2022/02/17 11:48:42;;;;;;;;;11.00;11.00;29.00;20.50;;;;;;4882194;29;11555;-66
2022/02/17 11:51:17;;;;;;;;;14.25;14.25;32.30;19.40;;;;;;4890716;29;11514;-67
2022/02/17 11:54:16;;;;;;;;;18.25;18.25;35.70;17.30;;;;;;4908865;29;11550;-66
2022/02/17 11:56:50;;;;;;;;;11.75;11.75;37.90;16.20;;;;;;4898779;29;11638;-67
2022/02/17 11:59:25;;;;;;;;;15.00;15.00;39.20;15.50;;;;;;4901101;29;11612;-67
2022/02/17 12:01:51;;;;;;;;;14.00;14.00;40.70;14.80;;;;;;4898652;29;11537;-66
2022/02/17 12:04:18;;;;;;;;;13.25;13.25;41.80;14.30;;;;;;4900843;29;11666;-66
2022/02/17 12:06:53;;;;;;;;;13.50;13.50;41.40;13.60;;;;;;4900455;29;11612;-67
2022/02/17 12:09:41;;;;;;;;;14.00;14.00;41.80;13.90;;;;;;4900157;29;11550;-67
2022/02/17 12:12:09;;;;;;;;;11.75;11.75;42.00;13.80;;;;;;4882203;29;11556;-68
2022/02/17 12:14:39;;;;;;;;;4.25;4.25;38.90;13.10;;;;;;4881862;29;11676;-68
2022/02/17 12:17:07;;;;;;;;;5.50;5.50;36.40;14.10;;;;;;4882030;29;11514;-70
2022/02/17 12:19:33;;;;;;;;;8.00;8.00;34.60;14.60;;;;;;4881712;29;11481;-70
2022/02/17 12:22:07;;;;;;;;;7.50;7.50;33.10;15.50;;;;;;4903212;29;11585;-70
2022/02/17 12:24:33;;;;;;;;;9.50;9.50;33.30;15.70;;;;;;4919377;29;8882;-70
2022/02/17 12:26:59;;;;;;;;;11.00;11.00;34.20;15.40;;;;;;4905757;29;12193;-69
2022/02/17 12:29:26;;;;;;;;;8.50;8.50;31.90;16.00;;;;;;4899758;29;11559;-70
2022/02/17 12:31:54;;;;;;;;;13.25;13.25;32.70;16.30;;;;;;4899850;29;9602;-69